sensor_id;sensor_type;location;lat;lon;timestamp;P1;durP1;ratioP1;P2;durP2;ratioP2
63316;SDS011;49822;41.468;13.560;2022-12-07T00:01:35;27.55;;;11.20;;
63316;SDS011;49822;41.468;13.560;2022-12-07T00:04:06;56.10;;;19.77;;
63316;SDS011;49822;41.468;13.560;2022-12-07T00:06:40;61.67;;;28.88;;
63316;SDS011;49822;41.468;13.560;2022-12-07T00:09:11;54.15;;;24.67;;
63316;SDS011;49822;41.468;13.560;2022-12-07T00:14:12;23.80;;;13.07;;
63316;SDS011;49822;41.468;13.560;2022-12-07T00:16:41;21.40;;;10.27;;
63316;SDS011;49822;41.468;13.560;2022-12-07T00:19:11;22.13;;;10.55;;
63316;SDS011;49822;41.468;13.560;2022-12-07T00:21:39;29.20;;;11.60;;
63316;SDS011;49822;41.468;13.560;2022-12-07T00:24:09;25.42;;;10.38;;
63316;SDS011;49822;41.468;13.560;2022-12-07T00:26:39;26.15;;;10.38;;
63316;SDS011;49822;41.468;13.560;2022-12-07T00:29:16;27.57;;;11.87;;
63316;SDS011;49822;41.468;13.560;2022-12-07T00:31:45;30.05;;;11.82;;
63316;SDS011;49822;41.468;13.560;2022-12-07T00:34:15;28.40;;;10.77;;
63316;SDS011;49822;41.468;13.560;2022-12-07T00:36:44;28.90;;;12.00;;
63316;SDS011;49822;41.468;13.560;2022-12-07T00:39:12;32.60;;;12.27;;
63316;SDS011;49822;41.468;13.560;2022-12-07T00:41:40;29.52;;;12.27;;
63316;SDS011;49822;41.468;13.560;2022-12-07T00:44:08;39.53;;;16.52;;
63316;SDS011;49822;41.468;13.560;2022-12-07T00:46:36;25.23;;;12.32;;
63316;SDS011;49822;41.468;13.560;2022-12-07T00:49:04;17.25;;;8.50;;
63316;SDS011;49822;41.468;13.560;2022-12-07T00:51:33;29.02;;;8.75;;
63316;SDS011;49822;41.468;13.560;2022-12-07T00:54:02;16.10;;;8.02;;
63316;SDS011;49822;41.468;13.560;2022-12-07T00:56:30;21.17;;;8.30;;
63316;SDS011;49822;41.468;13.560;2022-12-07T00:58:59;24.52;;;7.90;;
63316;SDS011;49822;41.468;13.560;2022-12-07T01:01:29;19.80;;;7.50;;
63316;SDS011;49822;41.468;13.560;2022-12-07T01:04:03;25.88;;;10.13;;
63316;SDS011;49822;41.468;13.560;2022-12-07T01:06:32;24.23;;;10.05;;
63316;SDS011;49822;41.468;13.560;2022-12-07T01:09:00;20.80;;;9.43;;
63316;SDS011;49822;41.468;13.560;2022-12-07T01:11:30;24.73;;;9.15;;
63316;SDS011;49822;41.468;13.560;2022-12-07T01:13:58;20.35;;;9.38;;
63316;SDS011;49822;41.468;13.560;2022-12-07T01:16:28;24.52;;;10.82;;
63316;SDS011;49822;41.468;13.560;2022-12-07T01:18:57;20.83;;;10.68;;
63316;SDS011;49822;41.468;13.560;2022-12-07T01:21:27;21.15;;;10.43;;
63316;SDS011;49822;41.468;13.560;2022-12-07T01:23:59;24.48;;;10.20;;
63316;SDS011;49822;41.468;13.560;2022-12-07T01:26:26;24.73;;;10.30;;
63316;SDS011;49822;41.468;13.560;2022-12-07T01:28:54;28.10;;;10.93;;
63316;SDS011;49822;41.468;13.560;2022-12-07T01:31:23;23.52;;;10.73;;
63316;SDS011;49822;41.468;13.560;2022-12-07T01:33:54;19.70;;;8.88;;
63316;SDS011;49822;41.468;13.560;2022-12-07T01:36:25;21.80;;;9.43;;
63316;SDS011;49822;41.468;13.560;2022-12-07T01:38:55;33.38;;;14.45;;
63316;SDS011;49822;41.468;13.560;2022-12-07T01:41:26;35.38;;;13.32;;
63316;SDS011;49822;41.468;13.560;2022-12-07T01:46:42;18.90;;;8.82;;
63316;SDS011;49822;41.468;13.560;2022-12-07T01:49:20;22.40;;;10.60;;
63316;SDS011;49822;41.468;13.560;2022-12-07T01:52:05;27.10;;;12.95;;
63316;SDS011;49822;41.468;13.560;2022-12-07T01:54:43;25.85;;;11.75;;
63316;SDS011;49822;41.468;13.560;2022-12-07T01:57:13;32.40;;;19.15;;
63316;SDS011;49822;41.468;13.560;2022-12-07T01:59:42;21.20;;;12.25;;
63316;SDS011;49822;41.468;13.560;2022-12-07T02:02:15;19.98;;;12.02;;
63316;SDS011;49822;41.468;13.560;2022-12-07T02:04:49;17.20;;;8.50;;
63316;SDS011;49822;41.468;13.560;2022-12-07T02:07:20;15.35;;;8.93;;
63316;SDS011;49822;41.468;13.560;2022-12-07T02:09:48;23.83;;;16.30;;
63316;SDS011;49822;41.468;13.560;2022-12-07T02:12:16;20.20;;;8.18;;
63316;SDS011;49822;41.468;13.560;2022-12-07T02:14:44;21.88;;;8.65;;
63316;SDS011;49822;41.468;13.560;2022-12-07T02:29:07;18.23;;;11.07;;
63316;SDS011;49822;41.468;13.560;2022-12-07T02:31:25;18.05;;;10.02;;
63316;SDS011;49822;41.468;13.560;2022-12-07T02:37:03;24.08;;;11.25;;
63316;SDS011;49822;41.468;13.560;2022-12-07T02:42:53;27.42;;;13.63;;
63316;SDS011;49822;41.468;13.560;2022-12-07T02:45:29;27.98;;;15.63;;
63316;SDS011;49822;41.468;13.560;2022-12-07T02:47:59;24.50;;;9.38;;
63316;SDS011;49822;41.468;13.560;2022-12-07T02:50:29;17.08;;;8.35;;
63316;SDS011;49822;41.468;13.560;2022-12-07T02:52:56;23.05;;;9.73;;
63316;SDS011;49822;41.468;13.560;2022-12-07T02:55:33;20.33;;;13.45;;
63316;SDS011;49822;41.468;13.560;2022-12-07T03:00:47;27.40;;;12.32;;
63316;SDS011;49822;41.468;13.560;2022-12-07T03:03:40;31.55;;;18.83;;
63316;SDS011;49822;41.468;13.560;2022-12-07T03:06:20;25.25;;;9.13;;
63316;SDS011;49822;41.468;13.560;2022-12-07T03:11:50;19.30;;;10.70;;
63316;SDS011;49822;41.468;13.560;2022-12-07T03:14:31;25.92;;;11.38;;
63316;SDS011;49822;41.468;13.560;2022-12-07T03:17:12;31.20;;;12.93;;
63316;SDS011;49822;41.468;13.560;2022-12-07T03:19:44;23.77;;;12.32;;
63316;SDS011;49822;41.468;13.560;2022-12-07T03:22:13;48.33;;;22.95;;
63316;SDS011;49822;41.468;13.560;2022-12-07T03:24:52;42.65;;;20.52;;
63316;SDS011;49822;41.468;13.560;2022-12-07T03:27:24;32.50;;;14.93;;
63316;SDS011;49822;41.468;13.560;2022-12-07T03:30:00;38.13;;;21.90;;
63316;SDS011;49822;41.468;13.560;2022-12-07T03:32:35;26.25;;;17.83;;
63316;SDS011;49822;41.468;13.560;2022-12-07T03:35:14;25.00;;;14.15;;
63316;SDS011;49822;41.468;13.560;2022-12-07T03:40:34;29.50;;;15.02;;
63316;SDS011;49822;41.468;13.560;2022-12-07T03:43:06;31.25;;;15.75;;
63316;SDS011;49822;41.468;13.560;2022-12-07T03:45:41;42.47;;;20.40;;
63316;SDS011;49822;41.468;13.560;2022-12-07T03:53:33;39.50;;;20.88;;
63316;SDS011;49822;41.468;13.560;2022-12-07T03:56:13;33.75;;;15.95;;
63316;SDS011;49822;41.468;13.560;2022-12-07T03:58:41;28.77;;;14.32;;
63316;SDS011;49822;41.468;13.560;2022-12-07T04:01:10;34.65;;;16.92;;
63316;SDS011;49822;41.468;13.560;2022-12-07T04:03:40;25.15;;;11.48;;
63316;SDS011;49822;41.468;13.560;2022-12-07T04:06:07;28.13;;;12.60;;
63316;SDS011;49822;41.468;13.560;2022-12-07T04:08:35;30.90;;;11.60;;
63316;SDS011;49822;41.468;13.560;2022-12-07T04:11:07;22.83;;;11.48;;
63316;SDS011;49822;41.468;13.560;2022-12-07T04:14:00;26.88;;;16.00;;
63316;SDS011;49822;41.468;13.560;2022-12-07T04:16:50;27.67;;;13.23;;
63316;SDS011;49822;41.468;13.560;2022-12-07T04:19:26;27.42;;;13.18;;
63316;SDS011;49822;41.468;13.560;2022-12-07T04:24:23;46.83;;;14.52;;
63316;SDS011;49822;41.468;13.560;2022-12-07T04:26:51;27.90;;;11.15;;
63316;SDS011;49822;41.468;13.560;2022-12-07T04:29:19;16.95;;;8.48;;
63316;SDS011;49822;41.468;13.560;2022-12-07T04:31:49;22.80;;;10.13;;
63316;SDS011;49822;41.468;13.560;2022-12-07T04:34:19;21.40;;;9.43;;
63316;SDS011;49822;41.468;13.560;2022-12-07T04:36:47;21.15;;;9.75;;
63316;SDS011;49822;41.468;13.560;2022-12-07T04:41:48;32.83;;;13.25;;
63316;SDS011;49822;41.468;13.560;2022-12-07T04:44:19;33.97;;;11.70;;
63316;SDS011;49822;41.468;13.560;2022-12-07T04:46:49;34.38;;;13.00;;
63316;SDS011;49822;41.468;13.560;2022-12-07T04:49:18;51.97;;;18.67;;
63316;SDS011;49822;41.468;13.560;2022-12-07T04:51:47;46.67;;;21.53;;
63316;SDS011;49822;41.468;13.560;2022-12-07T04:54:15;57.33;;;27.45;;
63316;SDS011;49822;41.468;13.560;2022-12-07T04:56:43;43.13;;;24.75;;
63316;SDS011;49822;41.468;13.560;2022-12-07T04:59:11;25.25;;;12.85;;
63316;SDS011;49822;41.468;13.560;2022-12-07T05:01:39;19.92;;;10.50;;
63316;SDS011;49822;41.468;13.560;2022-12-07T05:04:08;28.67;;;12.65;;
63316;SDS011;49822;41.468;13.560;2022-12-07T05:06:36;23.58;;;11.65;;
63316;SDS011;49822;41.468;13.560;2022-12-07T05:09:04;28.65;;;12.05;;
63316;SDS011;49822;41.468;13.560;2022-12-07T05:11:32;26.30;;;11.10;;
63316;SDS011;49822;41.468;13.560;2022-12-07T05:14:28;51.47;;;18.42;;
63316;SDS011;49822;41.468;13.560;2022-12-07T05:16:55;83.25;;;33.70;;
63316;SDS011;49822;41.468;13.560;2022-12-07T05:19:23;81.13;;;40.17;;
63316;SDS011;49822;41.468;13.560;2022-12-07T05:21:50;74.40;;;39.38;;
63316;SDS011;49822;41.468;13.560;2022-12-07T05:24:20;59.08;;;34.05;;
63316;SDS011;49822;41.468;13.560;2022-12-07T05:26:49;53.95;;;30.13;;
63316;SDS011;49822;41.468;13.560;2022-12-07T05:29:18;38.83;;;24.52;;
63316;SDS011;49822;41.468;13.560;2022-12-07T05:31:46;32.17;;;18.63;;
63316;SDS011;49822;41.468;13.560;2022-12-07T05:34:13;25.67;;;12.93;;
63316;SDS011;49822;41.468;13.560;2022-12-07T05:36:41;23.52;;;11.85;;
63316;SDS011;49822;41.468;13.560;2022-12-07T05:39:09;25.90;;;13.13;;
63316;SDS011;49822;41.468;13.560;2022-12-07T05:41:37;28.33;;;13.55;;
63316;SDS011;49822;41.468;13.560;2022-12-07T05:44:24;26.65;;;14.32;;
63316;SDS011;49822;41.468;13.560;2022-12-07T05:46:51;25.70;;;12.77;;
63316;SDS011;49822;41.468;13.560;2022-12-07T05:49:19;29.88;;;12.02;;
63316;SDS011;49822;41.468;13.560;2022-12-07T05:51:47;25.35;;;11.45;;
63316;SDS011;49822;41.468;13.560;2022-12-07T05:54:14;23.48;;;12.05;;
63316;SDS011;49822;41.468;13.560;2022-12-07T05:56:43;20.13;;;11.80;;
63316;SDS011;49822;41.468;13.560;2022-12-07T05:59:10;24.85;;;11.50;;
63316;SDS011;49822;41.468;13.560;2022-12-07T06:02:00;41.20;;;13.43;;
63316;SDS011;49822;41.468;13.560;2022-12-07T06:04:37;46.95;;;20.27;;
63316;SDS011;49822;41.468;13.560;2022-12-07T06:07:06;40.78;;;19.58;;
63316;SDS011;49822;41.468;13.560;2022-12-07T06:09:35;25.20;;;13.05;;
63316;SDS011;49822;41.468;13.560;2022-12-07T06:12:03;23.30;;;12.23;;
63316;SDS011;49822;41.468;13.560;2022-12-07T06:14:51;32.28;;;11.88;;
63316;SDS011;49822;41.468;13.560;2022-12-07T06:17:19;26.98;;;12.98;;
63316;SDS011;49822;41.468;13.560;2022-12-07T06:19:48;27.92;;;14.00;;
63316;SDS011;49822;41.468;13.560;2022-12-07T06:22:15;31.85;;;17.25;;
63316;SDS011;49822;41.468;13.560;2022-12-07T06:24:44;32.47;;;17.65;;
63316;SDS011;49822;41.468;13.560;2022-12-07T06:27:11;29.63;;;15.00;;
63316;SDS011;49822;41.468;13.560;2022-12-07T06:29:39;32.08;;;15.43;;
63316;SDS011;49822;41.468;13.560;2022-12-07T06:32:06;25.25;;;11.70;;
63316;SDS011;49822;41.468;13.560;2022-12-07T06:34:34;36.95;;;17.08;;
63316;SDS011;49822;41.468;13.560;2022-12-07T06:37:02;38.33;;;19.02;;
63316;SDS011;49822;41.468;13.560;2022-12-07T06:39:30;40.63;;;18.85;;
63316;SDS011;49822;41.468;13.560;2022-12-07T06:41:58;37.45;;;19.80;;
63316;SDS011;49822;41.468;13.560;2022-12-07T06:44:25;27.45;;;15.70;;
63316;SDS011;49822;41.468;13.560;2022-12-07T06:46:53;33.15;;;16.38;;
63316;SDS011;49822;41.468;13.560;2022-12-07T06:49:41;31.58;;;16.15;;
63316;SDS011;49822;41.468;13.560;2022-12-07T06:52:09;34.10;;;17.85;;
63316;SDS011;49822;41.468;13.560;2022-12-07T06:54:37;35.75;;;19.98;;
63316;SDS011;49822;41.468;13.560;2022-12-07T06:57:04;38.95;;;19.90;;
63316;SDS011;49822;41.468;13.560;2022-12-07T06:59:32;39.72;;;19.08;;
63316;SDS011;49822;41.468;13.560;2022-12-07T07:01:59;31.35;;;16.92;;
63316;SDS011;49822;41.468;13.560;2022-12-07T07:04:26;31.38;;;16.27;;
63316;SDS011;49822;41.468;13.560;2022-12-07T07:06:54;35.92;;;16.67;;
63316;SDS011;49822;41.468;13.560;2022-12-07T07:09:25;48.65;;;20.92;;
63316;SDS011;49822;41.468;13.560;2022-12-07T07:11:53;35.08;;;18.45;;
63316;SDS011;49822;41.468;13.560;2022-12-07T07:14:21;31.42;;;14.23;;
63316;SDS011;49822;41.468;13.560;2022-12-07T07:16:49;29.73;;;14.23;;
63316;SDS011;49822;41.468;13.560;2022-12-07T07:19:17;31.05;;;13.88;;
63316;SDS011;49822;41.468;13.560;2022-12-07T07:21:44;38.60;;;15.60;;
63316;SDS011;49822;41.468;13.560;2022-12-07T07:24:12;34.28;;;16.20;;
63316;SDS011;49822;41.468;13.560;2022-12-07T07:26:40;26.85;;;15.05;;
63316;SDS011;49822;41.468;13.560;2022-12-07T07:29:08;26.52;;;14.60;;
63316;SDS011;49822;41.468;13.560;2022-12-07T07:31:36;29.00;;;16.30;;
63316;SDS011;49822;41.468;13.560;2022-12-07T07:34:03;33.50;;;15.45;;
63316;SDS011;49822;41.468;13.560;2022-12-07T07:36:32;41.08;;;13.35;;
63316;SDS011;49822;41.468;13.560;2022-12-07T07:39:00;25.35;;;11.65;;
63316;SDS011;49822;41.468;13.560;2022-12-07T07:41:28;28.00;;;11.57;;
63316;SDS011;49822;41.468;13.560;2022-12-07T07:43:55;75.05;;;20.80;;
63316;SDS011;49822;41.468;13.560;2022-12-07T07:46:23;56.10;;;19.50;;
63316;SDS011;49822;41.468;13.560;2022-12-07T07:48:51;39.08;;;17.08;;
63316;SDS011;49822;41.468;13.560;2022-12-07T07:51:19;37.70;;;23.90;;
63316;SDS011;49822;41.468;13.560;2022-12-07T07:53:48;71.15;;;41.97;;
63316;SDS011;49822;41.468;13.560;2022-12-07T07:56:15;105.78;;;62.97;;
63316;SDS011;49822;41.468;13.560;2022-12-07T07:58:43;52.38;;;31.58;;
63316;SDS011;49822;41.468;13.560;2022-12-07T08:01:10;61.40;;;37.45;;
63316;SDS011;49822;41.468;13.560;2022-12-07T08:06:09;37.00;;;23.83;;
63316;SDS011;49822;41.468;13.560;2022-12-07T08:08:36;23.73;;;14.18;;
63316;SDS011;49822;41.468;13.560;2022-12-07T08:11:08;24.70;;;13.95;;
63316;SDS011;49822;41.468;13.560;2022-12-07T08:13:36;24.80;;;14.00;;
63316;SDS011;49822;41.468;13.560;2022-12-07T08:16:06;32.67;;;13.85;;
63316;SDS011;49822;41.468;13.560;2022-12-07T08:18:40;27.38;;;15.10;;
63316;SDS011;49822;41.468;13.560;2022-12-07T08:21:12;32.45;;;16.08;;
63316;SDS011;49822;41.468;13.560;2022-12-07T08:23:41;35.08;;;15.90;;
63316;SDS011;49822;41.468;13.560;2022-12-07T08:26:11;28.75;;;16.35;;
63316;SDS011;49822;41.468;13.560;2022-12-07T08:28:41;29.35;;;16.58;;
63316;SDS011;49822;41.468;13.560;2022-12-07T08:31:12;36.15;;;17.88;;
63316;SDS011;49822;41.468;13.560;2022-12-07T08:33:42;35.35;;;19.85;;
63316;SDS011;49822;41.468;13.560;2022-12-07T08:36:11;35.20;;;19.10;;
63316;SDS011;49822;41.468;13.560;2022-12-07T08:38:40;37.53;;;20.30;;
63316;SDS011;49822;41.468;13.560;2022-12-07T08:41:27;34.42;;;18.63;;
63316;SDS011;49822;41.468;13.560;2022-12-07T08:43:54;39.90;;;21.08;;
63316;SDS011;49822;41.468;13.560;2022-12-07T08:46:24;34.25;;;18.88;;
63316;SDS011;49822;41.468;13.560;2022-12-07T08:48:58;35.15;;;18.98;;
63316;SDS011;49822;41.468;13.560;2022-12-07T08:51:33;30.08;;;19.17;;
63316;SDS011;49822;41.468;13.560;2022-12-07T08:54:01;28.48;;;17.95;;
63316;SDS011;49822;41.468;13.560;2022-12-07T08:56:33;26.70;;;16.52;;
63316;SDS011;49822;41.468;13.560;2022-12-07T08:59:01;35.95;;;18.85;;
63316;SDS011;49822;41.468;13.560;2022-12-07T09:01:29;46.45;;;24.35;;
63316;SDS011;49822;41.468;13.560;2022-12-07T09:03:57;52.08;;;23.25;;
63316;SDS011;49822;41.468;13.560;2022-12-07T09:06:25;57.85;;;28.63;;
63316;SDS011;49822;41.468;13.560;2022-12-07T09:08:55;41.15;;;23.15;;
63316;SDS011;49822;41.468;13.560;2022-12-07T09:11:25;31.65;;;19.80;;
63316;SDS011;49822;41.468;13.560;2022-12-07T09:13:54;29.27;;;16.73;;
63316;SDS011;49822;41.468;13.560;2022-12-07T09:16:22;41.65;;;26.30;;
63316;SDS011;49822;41.468;13.560;2022-12-07T09:18:51;32.33;;;18.55;;
63316;SDS011;49822;41.468;13.560;2022-12-07T09:21:19;26.52;;;17.58;;
63316;SDS011;49822;41.468;13.560;2022-12-07T09:23:48;27.48;;;15.57;;
63316;SDS011;49822;41.468;13.560;2022-12-07T09:26:15;26.77;;;15.85;;
63316;SDS011;49822;41.468;13.560;2022-12-07T09:28:43;27.95;;;17.00;;
63316;SDS011;49822;41.468;13.560;2022-12-07T09:31:11;31.75;;;16.80;;
63316;SDS011;49822;41.468;13.560;2022-12-07T09:33:55;28.48;;;16.30;;
63316;SDS011;49822;41.468;13.560;2022-12-07T09:36:24;26.90;;;17.27;;
63316;SDS011;49822;41.468;13.560;2022-12-07T09:38:53;33.58;;;18.65;;
63316;SDS011;49822;41.468;13.560;2022-12-07T09:41:22;29.85;;;16.15;;
63316;SDS011;49822;41.468;13.560;2022-12-07T09:43:52;26.63;;;16.00;;
63316;SDS011;49822;41.468;13.560;2022-12-07T09:46:23;26.75;;;15.45;;
63316;SDS011;49822;41.468;13.560;2022-12-07T09:48:51;25.00;;;16.63;;
63316;SDS011;49822;41.468;13.560;2022-12-07T09:51:20;31.27;;;18.08;;
63316;SDS011;49822;41.468;13.560;2022-12-07T09:53:52;35.92;;;19.02;;
63316;SDS011;49822;41.468;13.560;2022-12-07T09:56:21;72.45;;;26.83;;
63316;SDS011;49822;41.468;13.560;2022-12-07T09:59:00;39.90;;;17.23;;
63316;SDS011;49822;41.468;13.560;2022-12-07T10:01:30;28.00;;;15.63;;
63316;SDS011;49822;41.468;13.560;2022-12-07T10:04:12;30.58;;;14.80;;
63316;SDS011;49822;41.468;13.560;2022-12-07T10:06:43;28.35;;;13.80;;
63316;SDS011;49822;41.468;13.560;2022-12-07T10:09:12;27.38;;;14.85;;
63316;SDS011;49822;41.468;13.560;2022-12-07T10:11:57;34.13;;;18.38;;
63316;SDS011;49822;41.468;13.560;2022-12-07T10:14:25;30.65;;;15.65;;
63316;SDS011;49822;41.468;13.560;2022-12-07T10:20:18;29.60;;;16.60;;
63316;SDS011;49822;41.468;13.560;2022-12-07T10:25:24;25.80;;;14.38;;
63316;SDS011;49822;41.468;13.560;2022-12-07T10:27:57;31.75;;;15.40;;
63316;SDS011;49822;41.468;13.560;2022-12-07T10:30:27;40.92;;;15.65;;
63316;SDS011;49822;41.468;13.560;2022-12-07T10:32:54;27.38;;;14.88;;
63316;SDS011;49822;41.468;13.560;2022-12-07T10:35:28;25.42;;;15.63;;
63316;SDS011;49822;41.468;13.560;2022-12-07T10:37:58;30.27;;;15.63;;
63316;SDS011;49822;41.468;13.560;2022-12-07T10:40:31;34.85;;;14.73;;
63316;SDS011;49822;41.468;13.560;2022-12-07T10:48:54;32.78;;;14.43;;
63316;SDS011;49822;41.468;13.560;2022-12-07T10:51:59;30.17;;;13.77;;
63316;SDS011;49822;41.468;13.560;2022-12-07T10:54:40;36.72;;;14.00;;
63316;SDS011;49822;41.468;13.560;2022-12-07T10:57:44;34.85;;;13.10;;
63316;SDS011;49822;41.468;13.560;2022-12-07T11:00:15;29.85;;;12.95;;
63316;SDS011;49822;41.468;13.560;2022-12-07T11:27:46;491.05;;;159.95;;
63316;SDS011;49822;41.468;13.560;2022-12-07T11:30:34;451.77;;;145.80;;
63316;SDS011;49822;41.468;13.560;2022-12-07T11:38:50;29.20;;;11.85;;
63316;SDS011;49822;41.468;13.560;2022-12-07T11:41:23;30.38;;;13.15;;
63316;SDS011;49822;41.468;13.560;2022-12-07T11:44:08;26.90;;;11.73;;
63316;SDS011;49822;41.468;13.560;2022-12-07T11:46:58;30.30;;;14.45;;
63316;SDS011;49822;41.468;13.560;2022-12-07T11:54:56;32.70;;;17.55;;
63316;SDS011;49822;41.468;13.560;2022-12-07T11:57:34;39.50;;;15.88;;
63316;SDS011;49822;41.468;13.560;2022-12-07T12:00:12;27.67;;;13.75;;
63316;SDS011;49822;41.468;13.560;2022-12-07T12:02:46;40.55;;;18.05;;
63316;SDS011;49822;41.468;13.560;2022-12-07T12:05:50;39.65;;;17.48;;
63316;SDS011;49822;41.468;13.560;2022-12-07T12:08:21;33.78;;;16.33;;
63316;SDS011;49822;41.468;13.560;2022-12-07T12:14:10;38.50;;;17.70;;
63316;SDS011;49822;41.468;13.560;2022-12-07T12:22:18;39.17;;;16.70;;
63316;SDS011;49822;41.468;13.560;2022-12-07T12:25:00;39.20;;;16.17;;
63316;SDS011;49822;41.468;13.560;2022-12-07T12:27:36;34.45;;;15.43;;
63316;SDS011;49822;41.468;13.560;2022-12-07T12:30:23;35.22;;;15.00;;
63316;SDS011;49822;41.468;13.560;2022-12-07T12:33:03;36.83;;;14.68;;
63316;SDS011;49822;41.468;13.560;2022-12-07T12:35:33;32.28;;;15.23;;
63316;SDS011;49822;41.468;13.560;2022-12-07T12:40:57;32.45;;;14.73;;
63316;SDS011;49822;41.468;13.560;2022-12-07T12:43:41;29.02;;;13.98;;
63316;SDS011;49822;41.468;13.560;2022-12-07T12:49:57;35.60;;;15.05;;
63316;SDS011;49822;41.468;13.560;2022-12-07T12:52:01;40.13;;;15.45;;
63316;SDS011;49822;41.468;13.560;2022-12-07T12:57:27;30.40;;;15.45;;
63316;SDS011;49822;41.468;13.560;2022-12-07T12:59:57;40.45;;;15.85;;
63316;SDS011;49822;41.468;13.560;2022-12-07T13:13:25;33.47;;;15.05;;
63316;SDS011;49822;41.468;13.560;2022-12-07T13:18:40;31.58;;;14.18;;
63316;SDS011;49822;41.468;13.560;2022-12-07T13:26:16;41.35;;;18.70;;
63316;SDS011;49822;41.468;13.560;2022-12-07T13:37:10;42.75;;;16.95;;
63316;SDS011;49822;41.468;13.560;2022-12-07T13:42:25;30.23;;;14.30;;
63316;SDS011;49822;41.468;13.560;2022-12-07T13:44:58;27.30;;;13.23;;
63316;SDS011;49822;41.468;13.560;2022-12-07T13:47:31;33.83;;;12.25;;
63316;SDS011;49822;41.468;13.560;2022-12-07T13:50:25;28.85;;;10.70;;
63316;SDS011;49822;41.468;13.560;2022-12-07T13:52:55;27.50;;;10.73;;
63316;SDS011;49822;41.468;13.560;2022-12-07T13:55:27;29.17;;;12.90;;
63316;SDS011;49822;41.468;13.560;2022-12-07T13:57:56;33.67;;;13.73;;
63316;SDS011;49822;41.468;13.560;2022-12-07T14:00:24;32.25;;;13.68;;
63316;SDS011;49822;41.468;13.560;2022-12-07T14:02:56;37.17;;;18.25;;
63316;SDS011;49822;41.468;13.560;2022-12-07T14:05:48;144.32;;;47.20;;
63316;SDS011;49822;41.468;13.560;2022-12-07T14:08:32;37.03;;;17.38;;
63316;SDS011;49822;41.468;13.560;2022-12-07T14:11:00;38.47;;;14.95;;
63316;SDS011;49822;41.468;13.560;2022-12-07T14:18:55;28.40;;;14.07;;
63316;SDS011;49822;41.468;13.560;2022-12-07T14:21:25;31.30;;;13.75;;
63316;SDS011;49822;41.468;13.560;2022-12-07T14:24:11;32.17;;;14.20;;
63316;SDS011;49822;41.468;13.560;2022-12-07T14:26:44;32.10;;;14.30;;
63316;SDS011;49822;41.468;13.560;2022-12-07T14:29:29;37.97;;;15.98;;
63316;SDS011;49822;41.468;13.560;2022-12-07T14:31:59;27.15;;;13.02;;
63316;SDS011;49822;41.468;13.560;2022-12-07T14:35:07;28.48;;;14.35;;
63316;SDS011;49822;41.468;13.560;2022-12-07T14:37:39;31.20;;;14.05;;
63316;SDS011;49822;41.468;13.560;2022-12-07T14:40:12;34.42;;;17.08;;
63316;SDS011;49822;41.468;13.560;2022-12-07T14:42:41;36.22;;;15.00;;
63316;SDS011;49822;41.468;13.560;2022-12-07T14:45:13;28.60;;;14.13;;
63316;SDS011;49822;41.468;13.560;2022-12-07T14:47:46;36.55;;;15.98;;
63316;SDS011;49822;41.468;13.560;2022-12-07T14:50:35;36.33;;;15.38;;
63316;SDS011;49822;41.468;13.560;2022-12-07T14:53:27;34.55;;;16.25;;
63316;SDS011;49822;41.468;13.560;2022-12-07T14:55:58;35.08;;;18.35;;
63316;SDS011;49822;41.468;13.560;2022-12-07T14:58:26;38.97;;;18.30;;
63316;SDS011;49822;41.468;13.560;2022-12-07T15:00:54;43.25;;;19.92;;
63316;SDS011;49822;41.468;13.560;2022-12-07T15:03:24;45.92;;;20.77;;
63316;SDS011;49822;41.468;13.560;2022-12-07T15:05:51;45.40;;;22.75;;
63316;SDS011;49822;41.468;13.560;2022-12-07T15:08:19;55.00;;;24.35;;
63316;SDS011;49822;41.468;13.560;2022-12-07T15:10:46;52.20;;;23.05;;
63316;SDS011;49822;41.468;13.560;2022-12-07T15:13:15;49.67;;;24.45;;
63316;SDS011;49822;41.468;13.560;2022-12-07T15:16:04;48.78;;;20.02;;
63316;SDS011;49822;41.468;13.560;2022-12-07T15:18:41;51.58;;;23.25;;
63316;SDS011;49822;41.468;13.560;2022-12-07T15:21:29;39.58;;;15.48;;
63316;SDS011;49822;41.468;13.560;2022-12-07T18:59:00;450.80;;;186.05;;
63316;SDS011;49822;41.468;13.560;2022-12-07T19:01:49;446.63;;;174.80;;
63316;SDS011;49822;41.468;13.560;2022-12-07T19:04:18;470.92;;;192.27;;
63316;SDS011;49822;41.468;13.560;2022-12-07T19:06:47;437.92;;;175.82;;
63316;SDS011;49822;41.468;13.560;2022-12-07T19:09:15;525.10;;;231.75;;
63316;SDS011;49822;41.468;13.560;2022-12-07T19:11:43;484.75;;;200.80;;
63316;SDS011;49822;41.468;13.560;2022-12-07T19:16:59;453.42;;;176.05;;
63316;SDS011;49822;41.468;13.560;2022-12-07T19:19:30;515.63;;;246.48;;
63316;SDS011;49822;41.468;13.560;2022-12-07T19:22:00;539.42;;;250.50;;
63316;SDS011;49822;41.468;13.560;2022-12-07T19:24:27;423.45;;;159.05;;
63316;SDS011;49822;41.468;13.560;2022-12-07T19:26:56;395.38;;;145.20;;
63316;SDS011;49822;41.468;13.560;2022-12-07T19:29:24;408.25;;;148.38;;
63316;SDS011;49822;41.468;13.560;2022-12-07T19:31:54;473.23;;;183.32;;
63316;SDS011;49822;41.468;13.560;2022-12-07T19:34:28;447.92;;;182.20;;
63316;SDS011;49822;41.468;13.560;2022-12-07T19:36:56;459.63;;;181.57;;
63316;SDS011;49822;41.468;13.560;2022-12-07T19:39:25;465.92;;;181.40;;
63316;SDS011;49822;41.468;13.560;2022-12-07T19:44:24;471.00;;;187.93;;
63316;SDS011;49822;41.468;13.560;2022-12-07T19:46:53;439.02;;;163.88;;
63316;SDS011;49822;41.468;13.560;2022-12-07T19:49:31;131.35;;;40.58;;
63316;SDS011;49822;41.468;13.560;2022-12-07T19:52:03;199.00;;;77.28;;
63316;SDS011;49822;41.468;13.560;2022-12-07T19:54:33;125.88;;;52.42;;
63316;SDS011;49822;41.468;13.560;2022-12-07T19:57:01;51.33;;;22.98;;
63316;SDS011;49822;41.468;13.560;2022-12-07T19:59:33;274.65;;;190.63;;
63316;SDS011;49822;41.468;13.560;2022-12-07T20:02:00;92.00;;;56.22;;
63316;SDS011;49822;41.468;13.560;2022-12-07T20:04:28;44.28;;;24.67;;
63316;SDS011;49822;41.468;13.560;2022-12-07T20:09:29;36.83;;;21.10;;
63316;SDS011;49822;41.468;13.560;2022-12-07T20:11:57;43.80;;;24.08;;
63316;SDS011;49822;41.468;13.560;2022-12-07T20:14:43;46.63;;;25.40;;
63316;SDS011;49822;41.468;13.560;2022-12-07T20:19:41;49.35;;;32.67;;
63316;SDS011;49822;41.468;13.560;2022-12-07T20:22:10;53.97;;;29.02;;
63316;SDS011;49822;41.468;13.560;2022-12-07T20:24:37;48.70;;;24.40;;
63316;SDS011;49822;41.468;13.560;2022-12-07T20:27:05;65.55;;;39.00;;
63316;SDS011;49822;41.468;13.560;2022-12-07T20:29:33;59.80;;;34.50;;
63316;SDS011;49822;41.468;13.560;2022-12-07T20:32:00;56.50;;;31.23;;
63316;SDS011;49822;41.468;13.560;2022-12-07T20:34:30;78.82;;;43.95;;
63316;SDS011;49822;41.468;13.560;2022-12-07T20:36:57;56.10;;;27.05;;
63316;SDS011;49822;41.468;13.560;2022-12-07T20:39:24;114.63;;;38.22;;
63316;SDS011;49822;41.468;13.560;2022-12-07T20:41:52;66.68;;;29.23;;
63316;SDS011;49822;41.468;13.560;2022-12-07T20:44:38;55.08;;;25.27;;
63316;SDS011;49822;41.468;13.560;2022-12-07T20:47:06;51.42;;;24.23;;